sensor_id;sensor_type;location;lat;lon;timestamp;temperature;humidity
21722;DHT22;11023;48.274;7.794;2023-02-14T00:01:37;2.20;99.90
21722;DHT22;11023;48.274;7.794;2023-02-14T00:04:04;2.20;99.90
21722;DHT22;11023;48.274;7.794;2023-02-14T00:06:31;2.20;99.90
21722;DHT22;11023;48.274;7.794;2023-02-14T00:09:02;2.20;99.90
21722;DHT22;11023;48.274;7.794;2023-02-14T00:11:28;2.20;99.90
21722;DHT22;11023;48.274;7.794;2023-02-14T00:13:54;2.20;99.90
21722;DHT22;11023;48.274;7.794;2023-02-14T00:16:38;2.20;99.90
21722;DHT22;11023;48.274;7.794;2023-02-14T00:19:04;2.20;99.90
21722;DHT22;11023;48.274;7.794;2023-02-14T00:21:32;2.20;99.90
21722;DHT22;11023;48.274;7.794;2023-02-14T00:24:00;2.20;99.90
21722;DHT22;11023;48.274;7.794;2023-02-14T00:26:26;2.20;99.90
21722;DHT22;11023;48.274;7.794;2023-02-14T00:28:52;2.10;99.90
21722;DHT22;11023;48.274;7.794;2023-02-14T00:31:17;2.00;99.90
21722;DHT22;11023;48.274;7.794;2023-02-14T00:33:43;2.00;99.90
21722;DHT22;11023;48.274;7.794;2023-02-14T00:36:09;2.00;99.90
21722;DHT22;11023;48.274;7.794;2023-02-14T00:38:36;2.00;99.90
21722;DHT22;11023;48.274;7.794;2023-02-14T00:41:02;1.90;99.90
21722;DHT22;11023;48.274;7.794;2023-02-14T00:43:28;1.90;99.90
21722;DHT22;11023;48.274;7.794;2023-02-14T00:45:53;1.80;99.90
21722;DHT22;11023;48.274;7.794;2023-02-14T00:48:19;1.70;99.90
21722;DHT22;11023;48.274;7.794;2023-02-14T00:50:45;1.70;99.90
21722;DHT22;11023;48.274;7.794;2023-02-14T00:53:11;1.70;99.90
21722;DHT22;11023;48.274;7.794;2023-02-14T00:55:37;1.70;99.90
21722;DHT22;11023;48.274;7.794;2023-02-14T00:58:02;1.70;99.90
21722;DHT22;11023;48.274;7.794;2023-02-14T01:00:28;1.70;99.90
21722;DHT22;11023;48.274;7.794;2023-02-14T01:02:54;1.70;99.90
21722;DHT22;11023;48.274;7.794;2023-02-14T01:05:19;1.60;99.90
21722;DHT22;11023;48.274;7.794;2023-02-14T01:07:45;1.60;99.90
21722;DHT22;11023;48.274;7.794;2023-02-14T01:10:11;1.60;99.90
21722;DHT22;11023;48.274;7.794;2023-02-14T01:12:36;1.60;99.90
21722;DHT22;11023;48.274;7.794;2023-02-14T01:15:02;1.60;99.90
21722;DHT22;11023;48.274;7.794;2023-02-14T01:17:28;1.60;99.90
21722;DHT22;11023;48.274;7.794;2023-02-14T01:19:54;1.60;99.90
21722;DHT22;11023;48.274;7.794;2023-02-14T01:22:20;1.50;99.90
21722;DHT22;11023;48.274;7.794;2023-02-14T01:24:45;1.50;99.90
21722;DHT22;11023;48.274;7.794;2023-02-14T01:27:11;1.60;99.90
21722;DHT22;11023;48.274;7.794;2023-02-14T01:29:37;1.60;99.90
21722;DHT22;11023;48.274;7.794;2023-02-14T01:32:02;1.50;99.90
21722;DHT22;11023;48.274;7.794;2023-02-14T01:34:28;1.50;99.90
21722;DHT22;11023;48.274;7.794;2023-02-14T01:36:54;1.50;99.90
21722;DHT22;11023;48.274;7.794;2023-02-14T01:39:19;1.50;99.90
21722;DHT22;11023;48.274;7.794;2023-02-14T01:41:46;1.50;99.90
21722;DHT22;11023;48.274;7.794;2023-02-14T01:46:38;1.60;99.90
21722;DHT22;11023;48.274;7.794;2023-02-14T01:49:08;1.50;99.90
21722;DHT22;11023;48.274;7.794;2023-02-14T01:51:40;1.50;99.90
21722;DHT22;11023;48.274;7.794;2023-02-14T01:54:08;1.50;99.90
21722;DHT22;11023;48.274;7.794;2023-02-14T01:56:40;1.40;99.90
21722;DHT22;11023;48.274;7.794;2023-02-14T01:59:10;1.50;99.90
21722;DHT22;11023;48.274;7.794;2023-02-14T02:01:37;1.50;99.90
21722;DHT22;11023;48.274;7.794;2023-02-14T02:04:10;1.50;99.90
21722;DHT22;11023;48.274;7.794;2023-02-14T02:06:41;1.40;99.90
21722;DHT22;11023;48.274;7.794;2023-02-14T02:09:41;1.40;99.90
21722;DHT22;11023;48.274;7.794;2023-02-14T02:12:09;1.30;99.90
21722;DHT22;11023;48.274;7.794;2023-02-14T02:14:35;1.40;99.90
21722;DHT22;11023;48.274;7.794;2023-02-14T02:18:21;1.30;99.90
21722;DHT22;11023;48.274;7.794;2023-02-14T02:23:22;1.30;99.90
21722;DHT22;11023;48.274;7.794;2023-02-14T02:45:35;1.20;99.90
21722;DHT22;11023;48.274;7.794;2023-02-14T02:48:22;1.20;99.90
21722;DHT22;11023;48.274;7.794;2023-02-14T02:50:52;1.20;99.90
21722;DHT22;11023;48.274;7.794;2023-02-14T02:53:55;1.20;99.90
21722;DHT22;11023;48.274;7.794;2023-02-14T02:56:30;1.20;99.90
21722;DHT22;11023;48.274;7.794;2023-02-14T03:02:08;1.20;99.90
21722;DHT22;11023;48.274;7.794;2023-02-14T03:04:40;1.20;99.90
21722;DHT22;11023;48.274;7.794;2023-02-14T03:07:39;1.20;99.90
21722;DHT22;11023;48.274;7.794;2023-02-14T03:20:44;1.20;99.90
21722;DHT22;11023;48.274;7.794;2023-02-14T03:26:21;1.20;99.90
21722;DHT22;11023;48.274;7.794;2023-02-14T03:28:54;1.10;99.90
21722;DHT22;11023;48.274;7.794;2023-02-14T03:31:29;1.10;99.90
21722;DHT22;11023;48.274;7.794;2023-02-14T03:36:39;1.00;99.90
21722;DHT22;11023;48.274;7.794;2023-02-14T03:42:14;1.10;99.90
21722;DHT22;11023;48.274;7.794;2023-02-14T03:44:41;1.10;99.90
21722;DHT22;11023;48.274;7.794;2023-02-14T03:47:13;1.10;99.90
21722;DHT22;11023;48.274;7.794;2023-02-14T03:49:45;1.10;99.90
21722;DHT22;11023;48.274;7.794;2023-02-14T03:52:13;1.10;99.90
21722;DHT22;11023;48.274;7.794;2023-02-14T03:54:40;1.00;99.90
21722;DHT22;11023;48.274;7.794;2023-02-14T03:57:15;0.90;99.90
21722;DHT22;11023;48.274;7.794;2023-02-14T03:59:44;0.90;99.90
21722;DHT22;11023;48.274;7.794;2023-02-14T04:02:55;0.90;99.90
21722;DHT22;11023;48.274;7.794;2023-02-14T04:05:06;0.80;99.90
21722;DHT22;11023;48.274;7.794;2023-02-14T04:07:47;0.80;99.90
21722;DHT22;11023;48.274;7.794;2023-02-14T04:10:13;0.80;99.90
21722;DHT22;11023;48.274;7.794;2023-02-14T04:12:39;0.80;99.90
21722;DHT22;11023;48.274;7.794;2023-02-14T04:15:05;0.60;99.90
21722;DHT22;11023;48.274;7.794;2023-02-14T04:17:31;0.60;99.90
21722;DHT22;11023;48.274;7.794;2023-02-14T04:20:15;0.70;99.90
21722;DHT22;11023;48.274;7.794;2023-02-14T04:22:40;0.60;99.90
21722;DHT22;11023;48.274;7.794;2023-02-14T04:25:06;0.60;99.90
21722;DHT22;11023;48.274;7.794;2023-02-14T04:27:32;0.60;99.90
21722;DHT22;11023;48.274;7.794;2023-02-14T04:29:58;0.50;99.90
21722;DHT22;11023;48.274;7.794;2023-02-14T04:32:25;0.50;99.90
21722;DHT22;11023;48.274;7.794;2023-02-14T04:34:50;0.50;99.90
21722;DHT22;11023;48.274;7.794;2023-02-14T04:37:18;0.50;99.90
21722;DHT22;11023;48.274;7.794;2023-02-14T04:39:44;0.60;99.90
21722;DHT22;11023;48.274;7.794;2023-02-14T04:42:10;0.60;99.90
21722;DHT22;11023;48.274;7.794;2023-02-14T04:44:36;0.70;99.90
21722;DHT22;11023;48.274;7.794;2023-02-14T04:47:05;0.80;99.90
21722;DHT22;11023;48.274;7.794;2023-02-14T04:49:31;0.80;99.90
21722;DHT22;11023;48.274;7.794;2023-02-14T04:51:59;0.80;99.90
21722;DHT22;11023;48.274;7.794;2023-02-14T04:54:25;0.80;99.90
21722;DHT22;11023;48.274;7.794;2023-02-14T04:56:51;0.80;99.90
21722;DHT22;11023;48.274;7.794;2023-02-14T04:59:17;0.80;99.90
21722;DHT22;11023;48.274;7.794;2023-02-14T05:01:43;0.80;99.90
21722;DHT22;11023;48.274;7.794;2023-02-14T05:04:09;0.70;99.90
21722;DHT22;11023;48.274;7.794;2023-02-14T05:06:35;0.60;99.90
21722;DHT22;11023;48.274;7.794;2023-02-14T05:09:02;0.50;99.90
21722;DHT22;11023;48.274;7.794;2023-02-14T05:11:28;0.60;99.90
21722;DHT22;11023;48.274;7.794;2023-02-14T05:13:54;0.60;99.90
21722;DHT22;11023;48.274;7.794;2023-02-14T05:16:20;0.60;99.90
21722;DHT22;11023;48.274;7.794;2023-02-14T05:18:46;0.60;99.90
21722;DHT22;11023;48.274;7.794;2023-02-14T05:21:12;0.60;99.90
21722;DHT22;11023;48.274;7.794;2023-02-14T05:23:38;0.50;99.90
21722;DHT22;11023;48.274;7.794;2023-02-14T05:26:04;0.40;99.90
21722;DHT22;11023;48.274;7.794;2023-02-14T05:28:30;0.30;99.90
21722;DHT22;11023;48.274;7.794;2023-02-14T05:30:56;0.40;99.90
21722;DHT22;11023;48.274;7.794;2023-02-14T05:33:23;0.40;99.90
21722;DHT22;11023;48.274;7.794;2023-02-14T05:35:49;0.30;99.90
21722;DHT22;11023;48.274;7.794;2023-02-14T05:38:15;0.30;99.90
21722;DHT22;11023;48.274;7.794;2023-02-14T05:40:42;0.20;99.90
21722;DHT22;11023;48.274;7.794;2023-02-14T05:43:08;0.20;99.90
21722;DHT22;11023;48.274;7.794;2023-02-14T05:45:34;0.20;99.90
21722;DHT22;11023;48.274;7.794;2023-02-14T05:48:00;0.20;99.90
21722;DHT22;11023;48.274;7.794;2023-02-14T05:50:26;0.20;99.90
21722;DHT22;11023;48.274;7.794;2023-02-14T05:52:52;0.20;99.90
21722;DHT22;11023;48.274;7.794;2023-02-14T05:55:18;0.30;99.90
21722;DHT22;11023;48.274;7.794;2023-02-14T05:57:44;0.40;99.90
21722;DHT22;11023;48.274;7.794;2023-02-14T06:00:10;0.40;99.90
21722;DHT22;11023;48.274;7.794;2023-02-14T06:02:36;0.40;99.90
21722;DHT22;11023;48.274;7.794;2023-02-14T06:05:02;0.40;99.90
21722;DHT22;11023;48.274;7.794;2023-02-14T06:07:28;0.40;99.90
21722;DHT22;11023;48.274;7.794;2023-02-14T06:09:54;0.30;99.90
21722;DHT22;11023;48.274;7.794;2023-02-14T06:12:19;0.30;99.90
21722;DHT22;11023;48.274;7.794;2023-02-14T06:14:45;0.30;99.90
21722;DHT22;11023;48.274;7.794;2023-02-14T06:17:11;0.30;99.90
21722;DHT22;11023;48.274;7.794;2023-02-14T06:19:36;0.30;99.90
21722;DHT22;11023;48.274;7.794;2023-02-14T06:22:02;0.30;99.90
21722;DHT22;11023;48.274;7.794;2023-02-14T06:24:28;0.30;99.90
21722;DHT22;11023;48.274;7.794;2023-02-14T06:26:55;0.40;99.90
21722;DHT22;11023;48.274;7.794;2023-02-14T06:29:22;0.50;99.90
21722;DHT22;11023;48.274;7.794;2023-02-14T06:31:48;0.50;99.90
21722;DHT22;11023;48.274;7.794;2023-02-14T06:34:14;0.50;99.90
21722;DHT22;11023;48.274;7.794;2023-02-14T06:36:41;0.50;99.90
21722;DHT22;11023;48.274;7.794;2023-02-14T06:39:07;0.50;99.90
21722;DHT22;11023;48.274;7.794;2023-02-14T06:41:33;0.50;99.90
21722;DHT22;11023;48.274;7.794;2023-02-14T06:43:58;0.50;99.90
21722;DHT22;11023;48.274;7.794;2023-02-14T06:46:25;0.50;99.90
21722;DHT22;11023;48.274;7.794;2023-02-14T06:48:51;0.50;99.90
21722;DHT22;11023;48.274;7.794;2023-02-14T06:51:16;0.60;99.90
21722;DHT22;11023;48.274;7.794;2023-02-14T06:53:42;0.60;99.90
21722;DHT22;11023;48.274;7.794;2023-02-14T06:56:08;0.60;99.90
21722;DHT22;11023;48.274;7.794;2023-02-14T06:58:34;0.60;99.90
21722;DHT22;11023;48.274;7.794;2023-02-14T07:01:01;0.60;99.90
21722;DHT22;11023;48.274;7.794;2023-02-14T07:03:27;0.60;99.90
21722;DHT22;11023;48.274;7.794;2023-02-14T07:05:53;0.60;99.90
21722;DHT22;11023;48.274;7.794;2023-02-14T07:08:20;0.60;99.90
21722;DHT22;11023;48.274;7.794;2023-02-14T07:10:46;0.60;99.90
21722;DHT22;11023;48.274;7.794;2023-02-14T07:13:12;0.60;99.90
21722;DHT22;11023;48.274;7.794;2023-02-14T07:15:38;0.60;99.90
21722;DHT22;11023;48.274;7.794;2023-02-14T07:18:04;0.60;99.90
21722;DHT22;11023;48.274;7.794;2023-02-14T07:20:34;0.60;99.90
21722;DHT22;11023;48.274;7.794;2023-02-14T07:23:00;0.60;99.90
21722;DHT22;11023;48.274;7.794;2023-02-14T07:25:26;0.60;99.90
21722;DHT22;11023;48.274;7.794;2023-02-14T07:27:53;0.70;99.90
21722;DHT22;11023;48.274;7.794;2023-02-14T07:30:18;0.70;99.90
21722;DHT22;11023;48.274;7.794;2023-02-14T07:32:44;0.70;99.90
21722;DHT22;11023;48.274;7.794;2023-02-14T07:35:10;0.70;99.90
21722;DHT22;11023;48.274;7.794;2023-02-14T07:37:36;0.70;99.90
21722;DHT22;11023;48.274;7.794;2023-02-14T07:40:03;0.80;99.90
21722;DHT22;11023;48.274;7.794;2023-02-14T07:42:29;0.80;99.90
21722;DHT22;11023;48.274;7.794;2023-02-14T07:44:55;0.80;99.90
21722;DHT22;11023;48.274;7.794;2023-02-14T07:47:20;0.80;99.90
21722;DHT22;11023;48.274;7.794;2023-02-14T07:49:46;0.80;99.90
21722;DHT22;11023;48.274;7.794;2023-02-14T07:52:13;0.90;99.90
21722;DHT22;11023;48.274;7.794;2023-02-14T07:54:39;0.90;99.90
21722;DHT22;11023;48.274;7.794;2023-02-14T07:57:05;0.80;99.90
21722;DHT22;11023;48.274;7.794;2023-02-14T07:59:31;0.70;99.90
21722;DHT22;11023;48.274;7.794;2023-02-14T08:01:57;0.70;99.90
21722;DHT22;11023;48.274;7.794;2023-02-14T08:04:25;0.70;99.90
21722;DHT22;11023;48.274;7.794;2023-02-14T08:06:52;0.80;99.90
21722;DHT22;11023;48.274;7.794;2023-02-14T08:09:18;0.80;99.90
21722;DHT22;11023;48.274;7.794;2023-02-14T08:11:55;0.80;99.90
21722;DHT22;11023;48.274;7.794;2023-02-14T08:14:41;0.90;99.90
21722;DHT22;11023;48.274;7.794;2023-02-14T08:17:09;1.00;99.90
21722;DHT22;11023;48.274;7.794;2023-02-14T08:19:38;1.00;99.90
21722;DHT22;11023;48.274;7.794;2023-02-14T08:22:04;0.90;99.90
21722;DHT22;11023;48.274;7.794;2023-02-14T08:24:30;0.90;99.90
21722;DHT22;11023;48.274;7.794;2023-02-14T08:26:57;0.80;99.90
21722;DHT22;11023;48.274;7.794;2023-02-14T08:29:23;0.80;99.90
21722;DHT22;11023;48.274;7.794;2023-02-14T08:31:50;0.80;99.90
21722;DHT22;11023;48.274;7.794;2023-02-14T08:34:16;0.90;99.90
21722;DHT22;11023;48.274;7.794;2023-02-14T08:36:42;1.00;99.90
21722;DHT22;11023;48.274;7.794;2023-02-14T08:39:09;1.00;99.90
21722;DHT22;11023;48.274;7.794;2023-02-14T08:41:35;1.00;99.90
21722;DHT22;11023;48.274;7.794;2023-02-14T08:44:00;0.90;99.90
21722;DHT22;11023;48.274;7.794;2023-02-14T08:46:27;0.90;99.90
21722;DHT22;11023;48.274;7.794;2023-02-14T08:48:53;0.90;99.90
21722;DHT22;11023;48.274;7.794;2023-02-14T08:51:21;1.00;99.90
21722;DHT22;11023;48.274;7.794;2023-02-14T08:53:49;1.10;99.90
21722;DHT22;11023;48.274;7.794;2023-02-14T08:56:17;1.20;99.90
21722;DHT22;11023;48.274;7.794;2023-02-14T08:58:44;1.20;99.90
21722;DHT22;11023;48.274;7.794;2023-02-14T09:01:12;1.30;99.90
21722;DHT22;11023;48.274;7.794;2023-02-14T09:03:39;1.30;99.90
21722;DHT22;11023;48.274;7.794;2023-02-14T09:06:08;1.30;99.90
21722;DHT22;11023;48.274;7.794;2023-02-14T09:08:38;1.30;99.90
21722;DHT22;11023;48.274;7.794;2023-02-14T09:11:13;1.30;99.90
21722;DHT22;11023;48.274;7.794;2023-02-14T09:13:42;1.20;99.90
21722;DHT22;11023;48.274;7.794;2023-02-14T09:16:09;1.20;99.90
21722;DHT22;11023;48.274;7.794;2023-02-14T09:18:36;1.30;99.90
21722;DHT22;11023;48.274;7.794;2023-02-14T09:21:06;1.30;99.90
21722;DHT22;11023;48.274;7.794;2023-02-14T09:23:33;1.40;99.90
21722;DHT22;11023;48.274;7.794;2023-02-14T09:26:03;1.40;99.90
21722;DHT22;11023;48.274;7.794;2023-02-14T09:28:30;1.50;99.90
21722;DHT22;11023;48.274;7.794;2023-02-14T09:30:57;1.50;99.90
21722;DHT22;11023;48.274;7.794;2023-02-14T09:33:26;1.50;99.90
21722;DHT22;11023;48.274;7.794;2023-02-14T09:35:52;1.50;99.90
21722;DHT22;11023;48.274;7.794;2023-02-14T09:38:36;1.50;99.90
21722;DHT22;11023;48.274;7.794;2023-02-14T09:41:07;1.50;99.90
21722;DHT22;11023;48.274;7.794;2023-02-14T09:43:43;1.60;99.90
21722;DHT22;11023;48.274;7.794;2023-02-14T09:46:14;1.50;99.90
21722;DHT22;11023;48.274;7.794;2023-02-14T09:48:45;1.50;99.90
21722;DHT22;11023;48.274;7.794;2023-02-14T09:51:17;1.50;99.90
21722;DHT22;11023;48.274;7.794;2023-02-14T09:53:49;1.50;99.90
21722;DHT22;11023;48.274;7.794;2023-02-14T09:59:27;1.60;99.90
21722;DHT22;11023;48.274;7.794;2023-02-14T10:02:14;1.70;99.90
21722;DHT22;11023;48.274;7.794;2023-02-14T10:04:56;1.70;99.90
21722;DHT22;11023;48.274;7.794;2023-02-14T10:13:09;1.70;99.90
21722;DHT22;11023;48.274;7.794;2023-02-14T10:15:37;1.90;99.90
21722;DHT22;11023;48.274;7.794;2023-02-14T10:18:25;2.00;99.90
21722;DHT22;11023;48.274;7.794;2023-02-14T10:20:55;2.10;99.90
21722;DHT22;11023;48.274;7.794;2023-02-14T10:23:31;2.10;99.90
21722;DHT22;11023;48.274;7.794;2023-02-14T10:26:04;2.10;99.90
21722;DHT22;11023;48.274;7.794;2023-02-14T10:28:34;2.20;99.90
21722;DHT22;11023;48.274;7.794;2023-02-14T10:31:53;2.20;99.90
21722;DHT22;11023;48.274;7.794;2023-02-14T10:34:42;2.30;99.90
21722;DHT22;11023;48.274;7.794;2023-02-14T10:40:17;2.30;99.90
21722;DHT22;11023;48.274;7.794;2023-02-14T10:45:38;2.50;99.90
21722;DHT22;11023;48.274;7.794;2023-02-14T10:56:24;2.50;99.90
21722;DHT22;11023;48.274;7.794;2023-02-14T10:58:53;2.50;99.90
21722;DHT22;11023;48.274;7.794;2023-02-14T11:01:21;2.50;99.90
21722;DHT22;11023;48.274;7.794;2023-02-14T11:06:18;2.50;99.90
21722;DHT22;11023;48.274;7.794;2023-02-14T11:08:44;2.60;99.90
21722;DHT22;11023;48.274;7.794;2023-02-14T11:11:15;2.70;99.90
21722;DHT22;11023;48.274;7.794;2023-02-14T11:13:44;2.90;99.90
21722;DHT22;11023;48.274;7.794;2023-02-14T11:16:17;2.90;99.90
21722;DHT22;11023;48.274;7.794;2023-02-14T11:18:44;3.00;99.90
21722;DHT22;11023;48.274;7.794;2023-02-14T11:21:12;3.00;99.90
21722;DHT22;11023;48.274;7.794;2023-02-14T11:23:43;3.00;99.90
21722;DHT22;11023;48.274;7.794;2023-02-14T11:26:30;2.90;99.90
21722;DHT22;11023;48.274;7.794;2023-02-14T11:29:03;2.90;99.90
21722;DHT22;11023;48.274;7.794;2023-02-14T11:31:36;2.90;99.90
21722;DHT22;11023;48.274;7.794;2023-02-14T11:34:05;3.10;99.90
21722;DHT22;11023;48.274;7.794;2023-02-14T11:36:40;3.00;99.90
21722;DHT22;11023;48.274;7.794;2023-02-14T11:41:50;3.00;99.90
21722;DHT22;11023;48.274;7.794;2023-02-14T11:44:19;3.00;99.90
21722;DHT22;11023;48.274;7.794;2023-02-14T11:46:53;3.00;99.90
21722;DHT22;11023;48.274;7.794;2023-02-14T11:49:33;3.10;99.90
21722;DHT22;11023;48.274;7.794;2023-02-14T11:52:10;3.10;99.90
21722;DHT22;11023;48.274;7.794;2023-02-14T11:54:40;3.20;99.90
21722;DHT22;11023;48.274;7.794;2023-02-14T11:59:46;3.10;99.90
21722;DHT22;11023;48.274;7.794;2023-02-14T12:04:46;3.00;99.90
21722;DHT22;11023;48.274;7.794;2023-02-14T12:07:18;3.00;99.90
21722;DHT22;11023;48.274;7.794;2023-02-14T12:09:46;3.10;99.90
21722;DHT22;11023;48.274;7.794;2023-02-14T12:12:18;3.10;99.90
21722;DHT22;11023;48.274;7.794;2023-02-14T12:14:44;3.20;99.90
21722;DHT22;11023;48.274;7.794;2023-02-14T12:17:30;3.30;99.90
21722;DHT22;11023;48.274;7.794;2023-02-14T12:20:08;3.40;99.90
21722;DHT22;11023;48.274;7.794;2023-02-14T12:22:42;3.50;99.90
21722;DHT22;11023;48.274;7.794;2023-02-14T12:25:21;3.50;99.90
21722;DHT22;11023;48.274;7.794;2023-02-14T12:27:59;3.50;99.90
21722;DHT22;11023;48.274;7.794;2023-02-14T12:30:31;3.50;99.90
21722;DHT22;11023;48.274;7.794;2023-02-14T12:32:57;3.50;99.90
21722;DHT22;11023;48.274;7.794;2023-02-14T12:38:54;3.60;99.90
21722;DHT22;11023;48.274;7.794;2023-02-14T12:55:27;3.40;99.90
21722;DHT22;11023;48.274;7.794;2023-02-14T13:03:34;3.30;99.90
21722;DHT22;11023;48.274;7.794;2023-02-14T13:06:30;3.40;99.90
21722;DHT22;11023;48.274;7.794;2023-02-14T13:09:14;3.50;99.90
21722;DHT22;11023;48.274;7.794;2023-02-14T13:14:59;3.30;99.90
21722;DHT22;11023;48.274;7.794;2023-02-14T13:22:54;3.40;99.90
21722;DHT22;11023;48.274;7.794;2023-02-14T13:25:26;3.40;99.90
21722;DHT22;11023;48.274;7.794;2023-02-14T13:27:57;3.40;99.90
21722;DHT22;11023;48.274;7.794;2023-02-14T13:30:30;3.30;99.90
21722;DHT22;11023;48.274;7.794;2023-02-14T13:33:05;3.30;99.90
21722;DHT22;11023;48.274;7.794;2023-02-14T13:35:32;3.30;99.90
21722;DHT22;11023;48.274;7.794;2023-02-14T13:38:05;3.40;99.90
21722;DHT22;11023;48.274;7.794;2023-02-14T13:40:32;3.40;99.90
21722;DHT22;11023;48.274;7.794;2023-02-14T13:43:00;3.30;99.90
21722;DHT22;11023;48.274;7.794;2023-02-14T13:48:18;3.50;99.90
21722;DHT22;11023;48.274;7.794;2023-02-14T13:53:33;3.40;99.90
21722;DHT22;11023;48.274;7.794;2023-02-14T14:01:40;3.40;99.90
21722;DHT22;11023;48.274;7.794;2023-02-14T14:17:32;3.50;99.90
21722;DHT22;11023;48.274;7.794;2023-02-14T14:20:00;3.40;99.90
21722;DHT22;11023;48.274;7.794;2023-02-14T14:22:27;3.40;99.90
21722;DHT22;11023;48.274;7.794;2023-02-14T14:25:01;3.40;99.90
21722;DHT22;11023;48.274;7.794;2023-02-14T14:27:34;3.40;99.90
21722;DHT22;11023;48.274;7.794;2023-02-14T14:30:19;3.50;99.90
21722;DHT22;11023;48.274;7.794;2023-02-14T14:32:48;3.50;99.90
21722;DHT22;11023;48.274;7.794;2023-02-14T14:40:31;3.50;99.90
21722;DHT22;11023;48.274;7.794;2023-02-14T14:43:13;3.60;99.90
21722;DHT22;11023;48.274;7.794;2023-02-14T14:45:45;3.60;99.90
21722;DHT22;11023;48.274;7.794;2023-02-14T14:48:17;3.60;99.90
21722;DHT22;11023;48.274;7.794;2023-02-14T14:50:46;3.40;99.90
21722;DHT22;11023;48.274;7.794;2023-02-14T14:56:20;3.40;99.90
21722;DHT22;11023;48.274;7.794;2023-02-14T14:58:46;3.50;99.90
21722;DHT22;11023;48.274;7.794;2023-02-14T15:04:23;3.40;99.90
21722;DHT22;11023;48.274;7.794;2023-02-14T15:06:49;3.20;99.90
21722;DHT22;11023;48.274;7.794;2023-02-14T15:09:21;3.20;99.90
21722;DHT22;11023;48.274;7.794;2023-02-14T15:11:48;3.20;99.90
21722;DHT22;11023;48.274;7.794;2023-02-14T15:14:45;3.30;99.90
21722;DHT22;11023;48.274;7.794;2023-02-14T15:17:24;3.20;99.90
21722;DHT22;11023;48.274;7.794;2023-02-14T15:19:53;3.20;99.90
21722;DHT22;11023;48.274;7.794;2023-02-14T15:22:34;3.30;99.90
21722;DHT22;11023;48.274;7.794;2023-02-14T15:25:07;3.20;99.90
21722;DHT22;11023;48.274;7.794;2023-02-14T15:27:38;3.20;99.90
21722;DHT22;11023;48.274;7.794;2023-02-14T15:30:07;3.10;99.90
21722;DHT22;11023;48.274;7.794;2023-02-14T15:32:35;3.10;99.90
21722;DHT22;11023;48.274;7.794;2023-02-14T15:35:05;3.10;99.90
21722;DHT22;11023;48.274;7.794;2023-02-14T15:37:32;3.10;99.90
21722;DHT22;11023;48.274;7.794;2023-02-14T15:39:58;3.00;99.90
21722;DHT22;11023;48.274;7.794;2023-02-14T15:42:29;3.00;99.90
21722;DHT22;11023;48.274;7.794;2023-02-14T15:47:43;3.00;99.90
21722;DHT22;11023;48.274;7.794;2023-02-14T15:50:16;3.00;99.90
21722;DHT22;11023;48.274;7.794;2023-02-14T15:52:43;3.00;99.90
21722;DHT22;11023;48.274;7.794;2023-02-14T15:55:10;3.00;99.90
21722;DHT22;11023;48.274;7.794;2023-02-14T15:57:37;3.00;99.90
21722;DHT22;11023;48.274;7.794;2023-02-14T16:04:13;3.00;99.90
21722;DHT22;11023;48.274;7.794;2023-02-14T16:13:41;2.90;99.90
21722;DHT22;11023;48.274;7.794;2023-02-14T16:29:59;2.60;99.90
21722;DHT22;11023;48.274;7.794;2023-02-14T16:39:37;2.70;99.90
21722;DHT22;11023;48.274;7.794;2023-02-14T16:45:46;2.70;99.90
21722;DHT22;11023;48.274;7.794;2023-02-14T16:48:29;2.60;99.90
21722;DHT22;11023;48.274;7.794;2023-02-14T16:57:39;2.60;99.90
21722;DHT22;11023;48.274;7.794;2023-02-14T17:00:36;2.50;99.90
21722;DHT22;11023;48.274;7.794;2023-02-14T17:04:23;2.50;99.90
21722;DHT22;11023;48.274;7.794;2023-02-14T17:06:57;2.50;99.90
21722;DHT22;11023;48.274;7.794;2023-02-14T17:09:49;2.50;99.90
21722;DHT22;11023;48.274;7.794;2023-02-14T17:13:06;2.60;99.90
21722;DHT22;11023;48.274;7.794;2023-02-14T17:15:50;2.50;99.90
21722;DHT22;11023;48.274;7.794;2023-02-14T17:18:22;2.50;99.90
21722;DHT22;11023;48.274;7.794;2023-02-14T17:21:06;2.50;99.90
21722;DHT22;11023;48.274;7.794;2023-02-14T17:23:55;2.50;99.90
21722;DHT22;11023;48.274;7.794;2023-02-14T17:26:31;2.40;99.90
21722;DHT22;11023;48.274;7.794;2023-02-14T17:29:17;2.40;99.90
21722;DHT22;11023;48.274;7.794;2023-02-14T17:31:58;2.40;99.90
21722;DHT22;11023;48.274;7.794;2023-02-14T17:34:58;2.50;99.90
21722;DHT22;11023;48.274;7.794;2023-02-14T17:37:37;2.40;99.90
21722;DHT22;11023;48.274;7.794;2023-02-14T17:43:17;2.40;99.90
21722;DHT22;11023;48.274;7.794;2023-02-14T17:49:14;2.30;99.90
21722;DHT22;11023;48.274;7.794;2023-02-14T17:51:48;2.30;99.90
21722;DHT22;11023;48.274;7.794;2023-02-14T17:54:55;2.30;99.90
21722;DHT22;11023;48.274;7.794;2023-02-14T17:57:29;2.30;99.90
21722;DHT22;11023;48.274;7.794;2023-02-14T18:00:23;2.30;99.90
21722;DHT22;11023;48.274;7.794;2023-02-14T18:03:23;2.20;99.90
21722;DHT22;11023;48.274;7.794;2023-02-14T18:06:30;2.20;99.90
21722;DHT22;11023;48.274;7.794;2023-02-14T18:09:21;2.10;99.90
21722;DHT22;11023;48.274;7.794;2023-02-14T18:12:13;2.10;99.90
21722;DHT22;11023;48.274;7.794;2023-02-14T18:15:14;2.00;99.90
21722;DHT22;11023;48.274;7.794;2023-02-14T18:17:58;2.00;99.90
21722;DHT22;11023;48.274;7.794;2023-02-14T18:20:38;2.10;99.90
21722;DHT22;11023;48.274;7.794;2023-02-14T18:23:34;2.20;99.90
21722;DHT22;11023;48.274;7.794;2023-02-14T18:26:23;2.20;99.90
21722;DHT22;11023;48.274;7.794;2023-02-14T18:32:00;2.20;99.90
21722;DHT22;11023;48.274;7.794;2023-02-14T18:38:48;2.20;99.90
21722;DHT22;11023;48.274;7.794;2023-02-14T18:44:45;2.30;99.90
21722;DHT22;11023;48.274;7.794;2023-02-14T18:47:37;2.30;99.90
21722;DHT22;11023;48.274;7.794;2023-02-14T18:50:28;2.30;99.90
21722;DHT22;11023;48.274;7.794;2023-02-14T18:53:23;2.30;99.90
21722;DHT22;11023;48.274;7.794;2023-02-14T18:59:58;2.20;99.90
21722;DHT22;11023;48.274;7.794;2023-02-14T19:05:26;2.20;99.90
21722;DHT22;11023;48.274;7.794;2023-02-14T19:08:24;2.10;99.90
21722;DHT22;11023;48.274;7.794;2023-02-14T19:18:42;1.90;99.90
21722;DHT22;11023;48.274;7.794;2023-02-14T19:21:31;1.80;99.90
21722;DHT22;11023;48.274;7.794;2023-02-14T19:24:06;1.80;99.90
21722;DHT22;11023;48.274;7.794;2023-02-14T19:27:15;1.70;99.90
21722;DHT22;11023;48.274;7.794;2023-02-14T19:38:57;1.70;99.90
21722;DHT22;11023;48.274;7.794;2023-02-14T19:42:08;1.80;99.90
21722;DHT22;11023;48.274;7.794;2023-02-14T19:51:56;1.70;99.90
21722;DHT22;11023;48.274;7.794;2023-02-14T19:54:49;1.60;99.90
21722;DHT22;11023;48.274;7.794;2023-02-14T19:57:57;1.60;99.90
21722;DHT22;11023;48.274;7.794;2023-02-14T20:08:27;1.80;99.90
21722;DHT22;11023;48.274;7.794;2023-02-14T20:28:37;1.90;99.90
21722;DHT22;11023;48.274;7.794;2023-02-14T20:44:34;1.90;99.90
21722;DHT22;11023;48.274;7.794;2023-02-14T20:50:56;1.90;99.90
21722;DHT22;11023;48.274;7.794;2023-02-14T21:03:53;2.00;99.90
21722;DHT22;11023;48.274;7.794;2023-02-14T21:26:46;1.90;99.90
21722;DHT22;11023;48.274;7.794;2023-02-14T21:33:24;2.00;99.90
21722;DHT22;11023;48.274;7.794;2023-02-14T21:49:58;2.00;99.90